createdAt,value
2019-06-07T00:00:58.695Z,80.90
2019-06-07T00:03:29.995Z,81.00
2019-06-07T00:05:53.445Z,81.30
2019-06-07T00:08:27.285Z,81.50
2019-06-07T00:10:48.176Z,81.60
2019-06-07T00:13:17.105Z,81.80
2019-06-07T00:15:43.932Z,81.90
2019-06-07T00:18:14.180Z,82.10
2019-06-07T00:20:38.893Z,82.40
2019-06-07T00:23:05.262Z,82.40
2019-06-07T00:25:31.842Z,82.70
2019-06-07T00:27:58.323Z,82.70
2019-06-07T00:31:03.470Z,83.00
2019-06-07T00:33:30.052Z,83.50
2019-06-07T00:35:56.432Z,84.10
2019-06-07T00:38:22.956Z,84.20
2019-06-07T00:40:50.436Z,84.20
2019-06-07T00:43:22.121Z,84.80
2019-06-07T00:45:45.607Z,85.20
2019-06-07T00:48:24.537Z,85.30
2019-06-07T00:50:41.496Z,85.50
2019-06-07T00:53:20.435Z,85.70
2019-06-07T00:55:36.327Z,86.10
2019-06-07T00:58:03.108Z,86.10
2019-06-07T01:00:30.051Z,86.50
2019-06-07T01:02:56.610Z,86.70
2019-06-07T01:05:30.970Z,87.00
2019-06-07T01:07:51.793Z,87.50
2019-06-07T01:10:42.255Z,87.90
2019-06-07T01:12:47.078Z,88.10
2019-06-07T01:15:17.521Z,88.50
2019-06-07T01:18:25.878Z,88.50
2019-06-07T01:20:12.106Z,89.10
2019-06-07T01:22:38.725Z,89.70
2019-06-07T01:25:06.709Z,90.20
2019-06-07T01:27:33.100Z,90.40
2019-06-07T01:29:59.513Z,90.40
2019-06-07T01:32:27.278Z,90.90
2019-06-07T01:34:54.411Z,91.10
2019-06-07T01:37:24.985Z,91.30
2019-06-07T01:39:49.539Z,91.30
2019-06-07T01:42:18.113Z,91.20
2019-06-07T01:44:44.639Z,91.20
2019-06-07T01:47:11.081Z,91.40
2019-06-07T01:49:41.102Z,91.70
2019-06-07T01:52:10.732Z,91.70
2019-06-07T01:54:55.976Z,91.80
2019-06-07T01:57:30.947Z,91.90
2019-06-07T01:59:45.882Z,92.40
2019-06-07T02:02:14.072Z,92.70
2019-06-07T02:04:40.574Z,92.60
2019-06-07T02:07:06.934Z,92.70
2019-06-07T02:09:33.558Z,93.10
2019-06-07T02:12:00.027Z,94.10
2019-06-07T02:14:29.887Z,94.80
2019-06-07T02:16:55.380Z,95.30
2019-06-07T02:19:22.127Z,95.10
2019-06-07T02:21:49.599Z,94.90
2019-06-07T02:24:16.026Z,94.50
2019-06-07T02:26:42.475Z,94.70
2019-06-07T02:29:08.856Z,94.80
2019-06-07T02:31:39.716Z,94.30
2019-06-07T02:34:04.795Z,94.30
2019-06-07T02:36:39.254Z,94.20
2019-06-07T02:38:59.463Z,94.40
2019-06-07T02:41:32.595Z,94.40
2019-06-07T02:43:54.342Z,94.40
2019-06-07T02:46:34.118Z,95.10
2019-06-07T02:48:53.519Z,95.30
2019-06-07T02:51:20.219Z,95.40
2019-06-07T02:53:46.819Z,95.60
2019-06-07T02:56:42.005Z,95.40
2019-06-07T02:58:42.406Z,95.30
2019-06-07T03:01:09.979Z,95.30
2019-06-07T03:03:40.051Z,95.50
2019-06-07T03:06:05.564Z,95.50
2019-06-07T03:08:35.465Z,95.00
2019-06-07T03:11:01.534Z,95.70
2019-06-07T03:13:34.184Z,96.00
2019-06-07T03:16:07.223Z,96.00
2019-06-07T03:18:53.668Z,95.80
2019-06-07T03:21:22.274Z,96.10
2019-06-07T03:23:52.637Z,96.20
2019-06-07T03:26:21.816Z,95.90
2019-06-07T03:28:48.567Z,96.00
2019-06-07T03:31:16.269Z,96.20
2019-06-07T03:33:45.504Z,96.30
2019-06-07T03:36:23.505Z,96.30
2019-06-07T03:38:40.597Z,96.00
2019-06-07T03:41:07.159Z,95.80
2019-06-07T03:43:37.763Z,95.70
2019-06-07T03:46:01.913Z,95.60
2019-06-07T03:48:30.214Z,95.50
2019-06-07T03:51:04.509Z,95.50
2019-06-07T03:53:25.067Z,95.20
2019-06-07T03:55:51.607Z,95.20
2019-06-07T03:58:31.367Z,95.40
2019-06-07T04:00:46.287Z,94.70
2019-06-07T04:03:32.451Z,93.40
2019-06-07T04:05:43.605Z,93.00
2019-06-07T04:08:10.625Z,92.80
2019-06-07T04:10:55.746Z,93.00
2019-06-07T04:13:05.514Z,93.00
2019-06-07T04:15:33.829Z,92.70
2019-06-07T04:18:02.258Z,92.50
2019-06-07T04:20:32.562Z,92.40
2019-06-07T04:22:58.495Z,92.30
2019-06-07T04:25:25.027Z,92.00
2019-06-07T04:27:51.581Z,91.80
2019-06-07T04:30:35.570Z,91.60
2019-06-07T04:33:02.216Z,91.60
2019-06-07T04:35:31.439Z,91.10
2019-06-07T04:37:57.276Z,91.20
2019-06-07T04:40:24.272Z,90.90
2019-06-07T04:42:51.133Z,90.60
2019-06-07T04:45:39.742Z,90.60
2019-06-07T04:48:01.112Z,90.40
2019-06-07T04:50:33.423Z,90.20
2019-06-07T04:53:00.412Z,88.30
2019-06-07T04:55:27.066Z,86.90
2019-06-07T04:57:53.454Z,84.60
2019-06-07T05:00:49.774Z,83.00
2019-06-07T05:03:05.726Z,80.40
2019-06-07T05:05:34.359Z,77.80
2019-06-07T05:08:07.142Z,75.30
2019-06-07T05:10:35.113Z,74.80
2019-06-07T05:12:59.347Z,74.00
2019-06-07T05:15:26.731Z,73.20
2019-06-07T05:17:53.210Z,72.60
2019-06-07T05:20:19.789Z,70.20
2019-06-07T05:22:46.274Z,69.90
2019-06-07T05:25:13.775Z,68.60
2019-06-07T05:27:46.316Z,67.60
2019-06-07T05:30:36.613Z,68.10
2019-06-07T05:32:45.514Z,66.50
2019-06-07T05:35:10.581Z,65.60
2019-06-07T05:37:38.127Z,63.80
2019-06-07T05:40:07.049Z,62.50
2019-06-07T05:42:37.209Z,61.20
2019-06-07T05:45:04.960Z,60.00
2019-06-07T05:47:31.790Z,60.30
2019-06-07T05:49:58.620Z,60.60
2019-06-07T05:52:26.078Z,59.00
2019-06-07T05:54:52.648Z,58.10
2019-06-07T05:57:19.713Z,57.20
2019-06-07T05:59:47.579Z,55.90
2019-06-07T06:02:22.574Z,55.30
2019-06-07T06:04:48.767Z,54.60
2019-06-07T06:07:11.626Z,54.80
2019-06-07T06:09:38.247Z,54.60
2019-06-07T06:12:05.308Z,54.10
2019-06-07T06:14:31.959Z,54.80
2019-06-07T06:16:58.493Z,55.10
2019-06-07T06:19:25.034Z,53.70
2019-06-07T06:21:51.511Z,53.30
2019-06-07T06:24:18.080Z,54.30
2019-06-07T06:26:51.171Z,54.90
2019-06-07T06:29:12.752Z,54.20
2019-06-07T06:31:49.420Z,54.30
2019-06-07T06:34:07.548Z,53.80
2019-06-07T06:36:34.062Z,53.90
2019-06-07T06:39:00.826Z,53.50
2019-06-07T06:41:27.703Z,52.20
2019-06-07T06:43:54.370Z,52.20
2019-06-07T06:46:37.297Z,51.90
2019-06-07T06:48:54.890Z,51.40
2019-06-07T06:51:17.552Z,50.60
2019-06-07T06:53:46.230Z,49.50
2019-06-07T06:56:12.340Z,49.40
2019-06-07T06:59:21.539Z,50.60
2019-06-07T07:01:11.250Z,48.90
2019-06-07T07:04:01.262Z,48.80
2019-06-07T07:06:25.290Z,50.50
2019-06-07T07:08:40.888Z,49.90
2019-06-07T07:11:09.706Z,49.60
2019-06-07T07:13:36.588Z,48.80
2019-06-07T07:16:03.249Z,50.60
2019-06-07T07:18:29.639Z,50.90
2019-06-07T07:20:57.552Z,49.10
2019-06-07T07:23:24.239Z,46.80
2019-06-07T07:25:58.613Z,47.60
2019-06-07T07:28:20.482Z,47.40
2019-06-07T07:30:55.358Z,47.00
2019-06-07T07:33:21.572Z,46.60
2019-06-07T07:36:10.848Z,46.90
2019-06-07T07:38:16.997Z,46.60
2019-06-07T07:43:12.082Z,45.20
2019-06-07T07:45:38.702Z,45.70
2019-06-07T07:48:15.381Z,45.00
2019-06-07T07:50:33.671Z,43.90
2019-06-07T07:53:00.864Z,45.00
2019-06-07T07:55:27.590Z,43.90
2019-06-07T07:58:00.990Z,44.40
2019-06-07T08:00:50.309Z,43.00
2019-06-07T08:02:53.762Z,44.40
2019-06-07T08:05:29.071Z,46.00
2019-06-07T08:07:51.919Z,45.50
2019-06-07T08:10:17.630Z,43.80
2019-06-07T08:13:09.115Z,42.40
2019-06-07T08:15:13.408Z,41.90
2019-06-07T08:17:39.901Z,40.70
2019-06-07T08:20:07.607Z,42.20
2019-06-07T08:22:34.162Z,40.00
2019-06-07T08:25:04.116Z,40.60
2019-06-07T08:27:28.835Z,41.30
2019-06-07T08:30:15.647Z,40.60
2019-06-07T08:32:23.713Z,41.60
2019-06-07T08:34:54.954Z,40.20
2019-06-07T08:37:18.510Z,39.50
2019-06-07T08:39:45.200Z,39.90
2019-06-07T08:42:21.176Z,41.00
2019-06-07T08:44:41.550Z,41.60
2019-06-07T08:47:19.755Z,39.90
2019-06-07T08:49:36.389Z,41.00
2019-06-07T08:52:09.929Z,39.60
2019-06-07T08:54:31.244Z,40.30
2019-06-07T08:57:17.074Z,40.20
2019-06-07T08:59:29.986Z,38.80
2019-06-07T09:02:04.230Z,40.10
2019-06-07T09:04:32.121Z,40.60
2019-06-07T09:07:09.002Z,40.30
2019-06-07T09:09:34.324Z,41.20
2019-06-07T09:12:11.154Z,40.40
2019-06-07T09:14:58.793Z,41.60
2019-06-07T09:17:12.060Z,41.00
2019-06-07T09:19:36.723Z,39.80
2019-06-07T09:22:08.223Z,40.90
2019-06-07T09:24:31.704Z,40.00
2019-06-07T09:27:00.235Z,40.00
2019-06-07T09:29:26.619Z,39.10
2019-06-07T09:31:53.842Z,38.30
2019-06-07T09:34:20.565Z,37.80
2019-06-07T09:36:47.129Z,39.60
2019-06-07T09:39:13.584Z,40.70
2019-06-07T09:41:49.607Z,40.60
2019-06-07T09:44:23.285Z,38.70
2019-06-07T09:46:37.588Z,39.30
2019-06-07T09:49:21.079Z,37.60
2019-06-07T09:51:32.314Z,37.30
2019-06-07T09:54:01.268Z,37.20
2019-06-07T09:56:27.057Z,37.80
2019-06-07T09:58:54.322Z,39.60
2019-06-07T10:01:21.209Z,40.30
2019-06-07T10:03:48.643Z,38.60
2019-06-07T10:06:15.455Z,38.30
2019-06-07T10:11:12.213Z,37.10
2019-06-07T10:13:38.735Z,37.60
2019-06-07T10:16:11.852Z,37.40
2019-06-07T10:18:46.442Z,35.80
2019-06-07T10:21:18.277Z,35.30
2019-06-07T10:23:53.061Z,34.90
2019-06-07T10:26:23.337Z,34.40
2019-06-07T10:28:53.218Z,34.80
2019-06-07T10:31:18.118Z,34.00
2019-06-07T10:33:44.763Z,35.50
2019-06-07T10:36:11.220Z,37.30
2019-06-07T10:38:37.711Z,37.40
2019-06-07T10:41:04.762Z,36.90
2019-06-07T10:43:31.237Z,36.60
2019-06-07T10:45:58.760Z,36.00
2019-06-07T10:48:27.489Z,35.10
2019-06-07T10:50:58.757Z,36.40
2019-06-07T10:53:29.326Z,36.30
2019-06-07T10:55:56.899Z,37.20
2019-06-07T10:58:25.681Z,37.10
2019-06-07T11:00:53.176Z,37.40
2019-06-07T11:03:25.714Z,36.30
2019-06-07T11:05:59.318Z,37.70
2019-06-07T11:08:30.708Z,37.30
2019-06-07T11:10:58.392Z,37.10
2019-06-07T11:13:28.726Z,36.50
2019-06-07T11:15:55.207Z,38.40
2019-06-07T11:18:23.459Z,37.80
2019-06-07T11:20:52.730Z,36.60
2019-06-07T11:23:21.374Z,35.70
2019-06-07T11:25:47.790Z,35.40
2019-06-07T11:28:14.799Z,35.10
2019-06-07T11:30:42.634Z,35.70
2019-06-07T11:33:11.881Z,36.30
2019-06-07T11:35:42.074Z,33.50
2019-06-07T11:38:17.137Z,35.40
2019-06-07T11:40:47.798Z,33.70
2019-06-07T11:43:15.004Z,32.80
2019-06-07T11:45:46.711Z,33.10
2019-06-07T11:48:15.531Z,32.30
2019-06-07T11:50:48.580Z,34.00
2019-06-07T11:53:20.522Z,36.40
2019-06-07T11:55:46.902Z,34.50
2019-06-07T11:58:18.428Z,34.10
2019-06-07T12:00:41.832Z,32.90
2019-06-07T12:03:09.474Z,34.20
2019-06-07T12:05:36.079Z,33.90
2019-06-07T12:08:02.629Z,34.60
2019-06-07T12:10:41.795Z,34.50
2019-06-07T12:12:57.485Z,35.20
2019-06-07T12:15:23.907Z,35.10
2019-06-07T12:17:50.261Z,34.00
2019-06-07T12:20:18.683Z,34.60
2019-06-07T12:22:46.434Z,35.20
2019-06-07T12:25:18.996Z,34.30
2019-06-07T12:27:41.360Z,35.80
2019-06-07T12:30:15.428Z,35.80
2019-06-07T12:32:37.860Z,35.70
2019-06-07T12:35:05.911Z,34.10
2019-06-07T12:37:43.274Z,35.50
2019-06-07T12:40:02.884Z,34.50
2019-06-07T12:42:30.132Z,35.50
2019-06-07T12:45:00.595Z,34.70
2019-06-07T12:47:28.265Z,35.30
2019-06-07T12:49:54.611Z,36.10
2019-06-07T12:52:22.837Z,35.70
2019-06-07T12:54:49.250Z,36.10
2019-06-07T12:57:16.222Z,37.00
2019-06-07T12:59:42.865Z,36.80
2019-06-07T13:02:10.550Z,35.50
2019-06-07T13:04:36.987Z,36.00
2019-06-07T13:07:03.585Z,35.70
2019-06-07T13:09:30.075Z,36.10
2019-06-07T13:11:56.443Z,36.70
2019-06-07T13:14:24.027Z,35.00
2019-06-07T13:16:50.486Z,36.70
2019-06-07T13:19:18.003Z,37.60
2019-06-07T13:21:44.623Z,37.70
2019-06-07T13:24:11.004Z,36.60
2019-06-07T13:26:37.479Z,36.60
2019-06-07T13:29:04.135Z,37.80
2019-06-07T13:31:30.564Z,36.70
2019-06-07T13:33:56.938Z,36.90
2019-06-07T13:36:24.389Z,37.90
2019-06-07T13:38:51.091Z,37.40
2019-06-07T13:41:33.700Z,37.90
2019-06-07T13:43:45.815Z,38.80
2019-06-07T13:46:13.150Z,40.00
2019-06-07T13:48:39.600Z,40.10
2019-06-07T13:51:06.098Z,39.20
2019-06-07T13:53:32.541Z,40.30
2019-06-07T13:55:58.991Z,39.60
2019-06-07T13:58:26.388Z,39.40
2019-06-07T14:00:53.015Z,38.60
2019-06-07T14:03:33.650Z,39.70
2019-06-07T14:05:58.577Z,40.00
2019-06-07T14:08:25.266Z,39.70
2019-06-07T14:10:51.769Z,40.10
2019-06-07T14:13:19.386Z,40.40
2019-06-07T14:15:46.045Z,40.00
2019-06-07T14:18:12.389Z,40.70
2019-06-07T14:20:38.898Z,40.80
2019-06-07T14:23:05.458Z,40.70
2019-06-07T14:25:31.970Z,41.90
2019-06-07T14:27:58.434Z,42.30
2019-06-07T14:30:25.976Z,42.30
2019-06-07T14:32:52.570Z,42.90
2019-06-07T14:35:19.149Z,42.30
2019-06-07T14:37:45.544Z,42.80
2019-06-07T14:40:12.219Z,42.40
2019-06-07T14:42:38.590Z,41.80
2019-06-07T14:45:06.461Z,43.30
2019-06-07T14:47:34.123Z,41.80
2019-06-07T14:50:00.612Z,42.20
2019-06-07T14:52:28.343Z,41.80
2019-06-07T14:54:54.960Z,42.80
2019-06-07T14:57:21.324Z,41.80
2019-06-07T14:59:47.705Z,41.30
2019-06-07T15:02:14.157Z,41.90
2019-06-07T15:04:41.365Z,42.80
2019-06-07T15:07:10.135Z,43.60
2019-06-07T15:09:36.549Z,43.70
2019-06-07T15:12:03.013Z,42.90
2019-06-07T15:14:29.544Z,41.80
2019-06-07T15:16:55.944Z,41.80
2019-06-07T15:19:24.163Z,42.50
2019-06-07T15:21:50.683Z,43.00
2019-06-07T15:24:17.156Z,43.70
2019-06-07T15:26:43.722Z,44.30
2019-06-07T15:29:11.228Z,44.70
2019-06-07T15:31:38.700Z,45.50
2019-06-07T15:34:05.584Z,44.60
2019-06-07T15:36:32.532Z,44.50
2019-06-07T15:38:58.947Z,45.00
2019-06-07T15:41:25.419Z,45.50
2019-06-07T15:43:51.858Z,45.70
2019-06-07T15:46:18.368Z,46.10
2019-06-07T15:48:45.219Z,46.70
2019-06-07T15:51:11.772Z,46.40
2019-06-07T15:53:43.171Z,46.20
2019-06-07T15:56:06.559Z,46.60
2019-06-07T15:58:33.199Z,46.70
2019-06-07T16:00:59.638Z,47.40
2019-06-07T16:03:26.149Z,47.00
2019-06-07T16:05:52.647Z,47.70
2019-06-07T16:08:19.079Z,49.20
2019-06-07T16:10:45.536Z,49.30
2019-06-07T16:13:12.112Z,48.60
2019-06-07T16:15:39.161Z,49.10
2019-06-07T16:18:05.981Z,49.00
2019-06-07T16:20:33.246Z,49.10
2019-06-07T16:22:59.999Z,49.00
2019-06-07T16:25:27.211Z,49.20
2019-06-07T16:27:54.120Z,49.90
2019-06-07T16:30:21.303Z,49.80
2019-06-07T16:32:47.659Z,49.90
2019-06-07T16:35:14.766Z,49.90
2019-06-07T16:37:42.771Z,50.20
2019-06-07T16:40:11.165Z,49.70
2019-06-07T16:42:38.482Z,49.90
2019-06-07T16:45:06.524Z,49.90
2019-06-07T16:47:36.841Z,49.80
2019-06-07T16:50:06.241Z,50.10
2019-06-07T16:52:32.707Z,50.80
2019-06-07T16:54:59.193Z,50.80
2019-06-07T16:57:25.610Z,50.80
2019-06-07T16:59:52.062Z,51.50
2019-06-07T17:02:18.558Z,51.60
2019-06-07T17:04:45.642Z,51.70
2019-06-07T17:07:12.403Z,52.30
2019-06-07T17:09:39.984Z,52.20
2019-06-07T17:12:06.550Z,52.10
2019-06-07T17:14:33.005Z,53.10
2019-06-07T17:16:59.596Z,52.60
2019-06-07T17:19:25.937Z,53.60
2019-06-07T17:21:52.414Z,53.80
2019-06-07T17:24:18.976Z,54.30
2019-06-07T17:26:45.533Z,54.40
2019-06-07T17:29:12.037Z,54.60
2019-06-07T17:31:39.768Z,54.60
2019-06-07T17:34:06.400Z,54.70
2019-06-07T17:36:32.767Z,55.20
2019-06-07T17:38:59.269Z,55.50
2019-06-07T17:41:25.724Z,55.80
2019-06-07T17:43:59.982Z,56.10
2019-06-07T17:46:20.427Z,56.20
2019-06-07T17:49:06.883Z,56.40
2019-06-07T17:51:33.225Z,56.80
2019-06-07T17:53:59.798Z,57.10
2019-06-07T17:56:26.166Z,57.50
2019-06-07T17:58:52.531Z,57.70
2019-06-07T18:01:19.032Z,58.10
2019-06-07T18:03:46.980Z,58.10
2019-06-07T18:06:14.380Z,58.40
2019-06-07T18:08:40.863Z,58.30
2019-06-07T18:11:07.491Z,58.80
2019-06-07T18:13:33.862Z,59.10
2019-06-07T18:16:00.343Z,59.20
2019-06-07T18:18:26.721Z,59.60
2019-06-07T18:20:53.525Z,60.40
2019-06-07T18:23:20.172Z,60.20
2019-06-07T18:25:46.591Z,60.60
2019-06-07T18:28:13.070Z,61.10
2019-06-07T18:30:39.855Z,61.60
2019-06-07T18:33:06.342Z,62.20
2019-06-07T18:35:33.159Z,62.30
2019-06-07T18:37:59.517Z,63.70
2019-06-07T18:40:26.081Z,64.20
2019-06-07T18:42:53.248Z,64.10
2019-06-07T18:45:19.877Z,64.40
2019-06-07T18:47:47.846Z,64.60
2019-06-07T18:50:14.525Z,65.70
2019-06-07T18:52:42.823Z,66.00
2019-06-07T18:55:09.889Z,66.50
2019-06-07T18:57:36.462Z,66.70
2019-06-07T19:00:06.040Z,68.10
2019-06-07T19:02:32.720Z,69.00
2019-06-07T19:04:59.074Z,69.90
2019-06-07T19:07:25.502Z,70.20
2019-06-07T19:09:52.622Z,70.90
2019-06-07T19:12:19.275Z,71.30
2019-06-07T19:14:47.635Z,72.20
2019-06-07T19:17:14.023Z,72.40
2019-06-07T19:19:40.417Z,72.90
2019-06-07T19:22:07.041Z,73.40
2019-06-07T19:24:33.499Z,73.70
2019-06-07T19:27:00.798Z,74.30
2019-06-07T19:29:27.424Z,74.80
2019-06-07T19:31:54.935Z,75.10
2019-06-07T19:34:22.494Z,75.80
2019-06-07T19:36:49.188Z,76.10
2019-06-07T19:39:15.788Z,76.60
2019-06-07T19:41:42.395Z,77.60
2019-06-07T19:44:08.816Z,77.50
2019-06-07T19:46:35.273Z,77.90
2019-06-07T19:49:03.097Z,78.20
2019-06-07T19:51:29.857Z,78.30
2019-06-07T19:53:57.103Z,78.70
2019-06-07T19:56:23.541Z,78.80
2019-06-07T19:58:49.923Z,78.80
2019-06-07T20:01:16.468Z,79.00
2019-06-07T20:03:43.075Z,79.30
2019-06-07T20:06:09.748Z,79.70
2019-06-07T20:08:36.184Z,80.00
2019-06-07T20:11:02.872Z,80.60
2019-06-07T20:13:29.318Z,81.00
2019-06-07T20:15:56.843Z,81.10
2019-06-07T20:18:23.299Z,81.40
2019-06-07T20:20:49.736Z,82.00
2019-06-07T20:23:16.333Z,81.30
2019-06-07T20:25:42.856Z,80.00
2019-06-07T20:28:09.677Z,78.90
2019-06-07T20:30:36.269Z,78.20
2019-06-07T20:33:03.993Z,77.90
2019-06-07T20:35:30.684Z,77.40
2019-06-07T20:37:57.215Z,77.30
2019-06-07T20:40:24.842Z,77.00
2019-06-07T20:42:51.591Z,75.40
2019-06-07T20:45:32.316Z,72.50
2019-06-07T20:47:46.687Z,71.20
2019-06-07T20:50:13.763Z,70.20
2019-06-07T20:52:47.946Z,69.00
2019-06-07T20:55:19.493Z,68.20
2019-06-07T20:57:49.734Z,65.50
2019-06-07T21:00:27.844Z,64.40
2019-06-07T21:02:55.115Z,62.90
2019-06-07T21:05:21.530Z,61.60
2019-06-07T21:07:54.191Z,61.30
2019-06-07T21:10:34.046Z,60.60
2019-06-07T21:13:01.974Z,60.50
2019-06-07T21:15:29.189Z,60.80
2019-06-07T21:17:55.540Z,62.70
2019-06-07T21:20:21.942Z,64.40
2019-06-07T21:22:48.376Z,66.20
2019-06-07T21:25:14.869Z,67.90
2019-06-07T21:27:41.523Z,69.50
2019-06-07T21:30:09.522Z,70.90
2019-06-07T21:32:36.360Z,71.60
2019-06-07T21:35:05.884Z,72.60
2019-06-07T21:37:32.728Z,72.70
2019-06-07T21:40:00.226Z,72.60
2019-06-07T21:42:27.024Z,72.10
2019-06-07T21:44:53.406Z,71.60
2019-06-07T21:47:19.764Z,71.30
2019-06-07T21:49:46.120Z,70.60
2019-06-07T21:52:12.896Z,70.20
2019-06-07T21:54:41.383Z,71.80
2019-06-07T21:57:08.987Z,72.40
2019-06-07T21:59:35.558Z,73.30
2019-06-07T22:02:03.233Z,73.50
2019-06-07T22:04:29.778Z,74.40
2019-06-07T22:06:56.470Z,73.70
2019-06-07T22:09:22.944Z,73.20
2019-06-07T22:11:49.338Z,72.20
2019-06-07T22:14:15.825Z,70.10
2019-06-07T22:16:42.322Z,69.30
2019-06-07T22:19:12.743Z,69.00
2019-06-07T22:21:40.680Z,68.90
2019-06-07T22:24:26.493Z,69.10
2019-06-07T22:27:04.872Z,69.00
2019-06-07T22:29:31.585Z,69.00
2019-06-07T22:32:01.991Z,69.10
2019-06-07T22:34:33.681Z,69.00
2019-06-07T22:37:02.787Z,69.30
2019-06-07T22:39:36.420Z,69.00
2019-06-07T22:42:15.261Z,68.80
2019-06-07T22:44:47.229Z,68.80
2019-06-07T22:47:18.290Z,68.30
2019-06-07T22:49:45.653Z,67.80
2019-06-07T22:52:15.147Z,67.60
2019-06-07T22:54:40.731Z,67.00
2019-06-07T22:57:12.257Z,67.60
2019-06-07T22:59:38.639Z,67.30
2019-06-07T23:02:05.378Z,67.30
2019-06-07T23:04:35.160Z,67.20
2019-06-07T23:07:01.763Z,67.20
2019-06-07T23:09:35.041Z,67.10
2019-06-07T23:12:06.479Z,67.20
2019-06-07T23:14:38.203Z,67.30
2019-06-07T23:17:14.112Z,67.10
2019-06-07T23:19:50.009Z,67.30
2019-06-07T23:22:23.263Z,67.30
2019-06-07T23:25:01.764Z,67.40
2019-06-07T23:27:34.421Z,67.70
2019-06-07T23:30:08.605Z,67.70
2019-06-07T23:32:37.814Z,67.70
2019-06-07T23:35:07.461Z,68.10
2019-06-07T23:37:42.773Z,68.20
2019-06-07T23:40:19.308Z,68.50
2019-06-07T23:42:54.951Z,68.70
2019-06-07T23:45:30.343Z,68.70
2019-06-07T23:47:58.812Z,69.00
2019-06-07T23:50:27.647Z,69.30
2019-06-07T23:53:05.600Z,69.40
2019-06-07T23:55:34.862Z,69.30
2019-06-07T23:58:07.759Z,69.30
